sensor_id;sensor_type;location;lat;lon;timestamp;P1;durP1;ratioP1;P2;durP2;ratioP2
37341;SDS011;58643;49.052;8.518;2022-10-15T05:31:29;1.50;;;1.00;;
37341;SDS011;58643;49.052;8.518;2022-10-15T05:33:57;2.17;;;1.20;;
37341;SDS011;58643;49.052;8.518;2022-10-15T05:36:23;4.32;;;1.10;;
37341;SDS011;58643;49.052;8.518;2022-10-15T05:38:51;2.38;;;1.17;;
37341;SDS011;58643;49.052;8.518;2022-10-15T05:41:28;3.45;;;1.25;;
37341;SDS011;58643;49.052;8.518;2022-10-15T05:43:54;3.05;;;0.90;;
37341;SDS011;58643;49.052;8.518;2022-10-15T05:46:21;1.20;;;0.90;;
37341;SDS011;58643;49.052;8.518;2022-10-15T05:48:47;4.63;;;0.95;;
37341;SDS011;58643;49.052;8.518;2022-10-15T05:51:14;3.83;;;1.00;;
37341;SDS011;58643;49.052;8.518;2022-10-15T05:53:41;1.85;;;1.08;;
37341;SDS011;58643;49.052;8.518;2022-10-15T05:56:07;4.78;;;1.10;;
37341;SDS011;58643;49.052;8.518;2022-10-15T05:58:34;10.60;;;1.70;;
37341;SDS011;58643;49.052;8.518;2022-10-15T06:01:01;5.30;;;2.75;;
37341;SDS011;58643;49.052;8.518;2022-10-15T06:03:28;1.83;;;1.10;;
37341;SDS011;58643;49.052;8.518;2022-10-15T06:05:55;1.88;;;1.15;;
37341;SDS011;58643;49.052;8.518;2022-10-15T06:08:20;4.95;;;0.93;;
37341;SDS011;58643;49.052;8.518;2022-10-15T06:10:46;2.00;;;1.23;;
37341;SDS011;58643;49.052;8.518;2022-10-15T06:13:12;2.83;;;1.50;;
37341;SDS011;58643;49.052;8.518;2022-10-15T06:15:39;3.28;;;1.75;;
37341;SDS011;58643;49.052;8.518;2022-10-15T06:18:06;4.05;;;1.20;;
37341;SDS011;58643;49.052;8.518;2022-10-15T06:20:43;3.55;;;1.40;;
37341;SDS011;58643;49.052;8.518;2022-10-15T06:23:09;4.45;;;1.52;;
37341;SDS011;58643;49.052;8.518;2022-10-15T06:25:36;1.70;;;1.20;;
37341;SDS011;58643;49.052;8.518;2022-10-15T06:28:02;3.28;;;1.77;;
37341;SDS011;58643;49.052;8.518;2022-10-15T06:30:29;2.03;;;1.25;;
37341;SDS011;58643;49.052;8.518;2022-10-15T06:32:55;2.03;;;1.33;;
37341;SDS011;58643;49.052;8.518;2022-10-15T06:35:22;3.58;;;1.27;;
37341;SDS011;58643;49.052;8.518;2022-10-15T06:37:48;4.78;;;1.50;;
37341;SDS011;58643;49.052;8.518;2022-10-15T06:40:14;5.32;;;1.45;;
37341;SDS011;58643;49.052;8.518;2022-10-15T06:42:46;2.97;;;1.50;;
37341;SDS011;58643;49.052;8.518;2022-10-15T06:45:14;2.55;;;1.50;;
37341;SDS011;58643;49.052;8.518;2022-10-15T06:47:43;3.55;;;1.50;;
37341;SDS011;58643;49.052;8.518;2022-10-15T06:50:09;2.03;;;1.20;;
37341;SDS011;58643;49.052;8.518;2022-10-15T06:52:35;3.33;;;1.48;;
37341;SDS011;58643;49.052;8.518;2022-10-15T06:55:01;2.60;;;1.38;;
37341;SDS011;58643;49.052;8.518;2022-10-15T06:57:27;4.03;;;1.40;;
37341;SDS011;58643;49.052;8.518;2022-10-15T06:59:53;1.42;;;1.20;;
37341;SDS011;58643;49.052;8.518;2022-10-15T07:02:19;1.88;;;1.20;;
37341;SDS011;58643;49.052;8.518;2022-10-15T07:04:45;6.93;;;1.70;;
37341;SDS011;58643;49.052;8.518;2022-10-15T07:07:11;3.08;;;1.63;;
37341;SDS011;58643;49.052;8.518;2022-10-15T07:09:37;4.38;;;1.50;;
37341;SDS011;58643;49.052;8.518;2022-10-15T07:12:02;3.70;;;1.10;;
37341;SDS011;58643;49.052;8.518;2022-10-15T07:14:28;7.03;;;1.10;;
37341;SDS011;58643;49.052;8.518;2022-10-15T07:16:54;2.35;;;1.17;;
37341;SDS011;58643;49.052;8.518;2022-10-15T07:19:19;8.13;;;1.60;;
37341;SDS011;58643;49.052;8.518;2022-10-15T07:21:45;3.22;;;1.30;;
37341;SDS011;58643;49.052;8.518;2022-10-15T07:24:10;4.47;;;1.58;;
37341;SDS011;58643;49.052;8.518;2022-10-15T07:26:36;2.65;;;1.30;;
37341;SDS011;58643;49.052;8.518;2022-10-15T07:29:02;3.40;;;1.30;;
37341;SDS011;58643;49.052;8.518;2022-10-15T07:31:28;4.80;;;1.60;;
37341;SDS011;58643;49.052;8.518;2022-10-15T07:33:53;3.58;;;1.35;;
37341;SDS011;58643;49.052;8.518;2022-10-15T07:36:19;6.53;;;1.40;;
37341;SDS011;58643;49.052;8.518;2022-10-15T07:38:45;4.50;;;1.65;;
37341;SDS011;58643;49.052;8.518;2022-10-15T07:41:11;5.38;;;1.52;;
37341;SDS011;58643;49.052;8.518;2022-10-15T07:43:37;4.88;;;1.52;;
37341;SDS011;58643;49.052;8.518;2022-10-15T07:46:03;3.40;;;1.52;;
37341;SDS011;58643;49.052;8.518;2022-10-15T07:48:29;5.40;;;1.52;;
37341;SDS011;58643;49.052;8.518;2022-10-15T07:50:59;4.38;;;1.50;;
37341;SDS011;58643;49.052;8.518;2022-10-15T07:53:27;4.18;;;1.45;;
37341;SDS011;58643;49.052;8.518;2022-10-15T07:55:56;1.90;;;1.20;;
37341;SDS011;58643;49.052;8.518;2022-10-15T07:58:27;3.95;;;1.60;;
37341;SDS011;58643;49.052;8.518;2022-10-15T08:00:54;2.22;;;1.20;;
37341;SDS011;58643;49.052;8.518;2022-10-15T08:03:24;3.85;;;1.40;;
37341;SDS011;58643;49.052;8.518;2022-10-15T08:05:49;3.17;;;1.10;;
37341;SDS011;58643;49.052;8.518;2022-10-15T08:08:17;1.67;;;0.95;;
37341;SDS011;58643;49.052;8.518;2022-10-15T08:10:43;2.60;;;0.95;;
37341;SDS011;58643;49.052;8.518;2022-10-15T08:13:10;1.92;;;1.10;;
37341;SDS011;58643;49.052;8.518;2022-10-15T08:15:37;1.63;;;1.10;;
37341;SDS011;58643;49.052;8.518;2022-10-15T08:18:04;3.50;;;1.30;;
37341;SDS011;58643;49.052;8.518;2022-10-15T08:20:29;2.80;;;1.05;;
37341;SDS011;58643;49.052;8.518;2022-10-15T08:22:55;3.00;;;1.00;;
37341;SDS011;58643;49.052;8.518;2022-10-15T08:25:21;2.80;;;1.10;;
37341;SDS011;58643;49.052;8.518;2022-10-15T08:27:46;2.58;;;1.10;;
37341;SDS011;58643;49.052;8.518;2022-10-15T08:30:12;1.77;;;1.00;;
37341;SDS011;58643;49.052;8.518;2022-10-15T08:32:37;1.33;;;1.15;;
37341;SDS011;58643;49.052;8.518;2022-10-15T08:35:03;2.05;;;1.10;;
37341;SDS011;58643;49.052;8.518;2022-10-15T08:37:29;4.70;;;1.00;;
37341;SDS011;58643;49.052;8.518;2022-10-15T08:39:54;1.10;;;0.70;;
37341;SDS011;58643;49.052;8.518;2022-10-15T08:42:21;4.00;;;0.98;;
37341;SDS011;58643;49.052;8.518;2022-10-15T08:44:57;1.45;;;0.70;;
37341;SDS011;58643;49.052;8.518;2022-10-15T08:47:28;1.52;;;0.77;;
37341;SDS011;58643;49.052;8.518;2022-10-15T08:49:59;2.58;;;0.85;;
37341;SDS011;58643;49.052;8.518;2022-10-15T08:52:45;1.10;;;0.80;;
37341;SDS011;58643;49.052;8.518;2022-10-15T08:55:14;1.10;;;0.88;;
37341;SDS011;58643;49.052;8.518;2022-10-15T09:00:37;2.13;;;1.05;;
37341;SDS011;58643;49.052;8.518;2022-10-15T09:05:43;2.17;;;0.68;;
37341;SDS011;58643;49.052;8.518;2022-10-15T09:11:12;1.48;;;1.00;;
37341;SDS011;58643;49.052;8.518;2022-10-15T09:13:42;1.25;;;0.70;;
37341;SDS011;58643;49.052;8.518;2022-10-15T09:16:16;2.67;;;0.93;;
37341;SDS011;58643;49.052;8.518;2022-10-15T09:18:56;2.50;;;0.90;;
37341;SDS011;58643;49.052;8.518;2022-10-15T09:21:24;2.35;;;0.98;;
37341;SDS011;58643;49.052;8.518;2022-10-15T09:23:55;2.60;;;0.98;;
37341;SDS011;58643;49.052;8.518;2022-10-15T09:26:30;1.10;;;0.60;;
37341;SDS011;58643;49.052;8.518;2022-10-15T09:31:44;1.77;;;0.60;;
37341;SDS011;58643;49.052;8.518;2022-10-15T09:34:27;1.90;;;0.90;;
37341;SDS011;58643;49.052;8.518;2022-10-15T09:37:13;2.53;;;0.90;;
37341;SDS011;58643;49.052;8.518;2022-10-15T09:39:57;2.38;;;0.70;;
37341;SDS011;58643;49.052;8.518;2022-10-15T09:42:38;0.77;;;0.63;;
37341;SDS011;58643;49.052;8.518;2022-10-15T09:45:09;1.77;;;0.80;;
37341;SDS011;58643;49.052;8.518;2022-10-15T09:47:38;1.52;;;0.70;;
37341;SDS011;58643;49.052;8.518;2022-10-15T09:50:06;3.80;;;0.70;;
37341;SDS011;58643;49.052;8.518;2022-10-15T10:03:17;4.23;;;0.63;;
37341;SDS011;58643;49.052;8.518;2022-10-15T10:05:43;2.63;;;0.70;;
37341;SDS011;58643;49.052;8.518;2022-10-15T10:08:20;1.27;;;0.70;;
37341;SDS011;58643;49.052;8.518;2022-10-15T10:11:00;1.65;;;0.70;;
37341;SDS011;58643;49.052;8.518;2022-10-15T10:16:29;2.25;;;0.65;;
37341;SDS011;58643;49.052;8.518;2022-10-15T10:19:00;4.22;;;0.85;;
37341;SDS011;58643;49.052;8.518;2022-10-15T10:21:36;1.38;;;0.70;;
37341;SDS011;58643;49.052;8.518;2022-10-15T10:24:37;0.82;;;0.65;;
37341;SDS011;58643;49.052;8.518;2022-10-15T10:26:58;1.33;;;0.50;;
37341;SDS011;58643;49.052;8.518;2022-10-15T10:29:26;1.48;;;0.63;;
37341;SDS011;58643;49.052;8.518;2022-10-15T10:31:53;1.23;;;0.57;;
37341;SDS011;58643;49.052;8.518;2022-10-15T10:34:26;1.92;;;0.70;;
37341;SDS011;58643;49.052;8.518;2022-10-15T10:36:54;0.93;;;0.60;;
37341;SDS011;58643;49.052;8.518;2022-10-15T10:39:30;3.53;;;0.75;;
37341;SDS011;58643;49.052;8.518;2022-10-15T10:44:31;2.70;;;1.25;;
37341;SDS011;58643;49.052;8.518;2022-10-15T10:49:31;1.17;;;0.75;;
37341;SDS011;58643;49.052;8.518;2022-10-15T10:51:58;1.98;;;0.68;;
37341;SDS011;58643;49.052;8.518;2022-10-15T10:54:24;0.93;;;0.63;;
37341;SDS011;58643;49.052;8.518;2022-10-15T10:56:51;5.28;;;0.75;;
37341;SDS011;58643;49.052;8.518;2022-10-15T11:01:51;5.45;;;0.73;;
37341;SDS011;58643;49.052;8.518;2022-10-15T11:20:29;1.92;;;0.80;;
37341;SDS011;58643;49.052;8.518;2022-10-15T11:23:29;3.85;;;0.90;;
